Time;durP1;ratioP1;P1;durP2;ratioP2;P2;SDS_P1;SDS_P2;PMS_P1;PMS_P2;Temp;Humidity;BMP_temperature;BMP_pressure;BME280_temperature;BME280_humidity;BME280_pressure;Samples;Min_cycle;Max_cycle;Signal;HPM_P1;HPM_P2
2020/12/07 00:04:21;;;;;;;21.13;11.80;;;;;;;-144.15;0.00;65763.66;10316822;28;20044;-66
2020/12/07 00:09:19;;;;;;;22.08;12.07;;;;;;;-144.15;0.00;65763.66;10316064;28;20477;-66
2020/12/07 00:14:17;;;;;;;18.60;10.10;;;;;;;-144.15;0.00;65763.66;10316201;28;20073;-67
2020/12/07 00:19:15;;;;;;;19.05;10.13;;;;;;;-144.15;0.00;65763.66;10316008;28;20497;-66
2020/12/07 00:24:13;;;;;;;16.95;10.32;;;;;;;-144.15;0.00;65763.66;10320140;28;20463;-68
2020/12/07 00:29:11;;;;;;;22.83;11.10;;;;;;;-144.15;0.00;65763.66;10324676;28;20071;-68
2020/12/07 00:34:09;;;;;;;20.70;11.85;;;;;;;-144.15;0.00;65763.66;10324017;28;20064;-67
2020/12/07 00:39:07;;;;;;;24.10;11.68;;;;;;;-144.15;0.00;65763.66;10323894;28;20471;-67
2020/12/07 00:44:05;;;;;;;19.98;11.77;;;;;;;-144.15;0.00;65763.66;10323240;28;20052;-67
2020/12/07 00:49:02;;;;;;;25.15;13.70;;;;;;;-144.15;0.00;65763.66;10323446;28;20045;-67
2020/12/07 00:54:01;;;;;;;25.83;14.60;;;;;;;-144.15;0.00;65763.66;10323257;28;20041;-67
2020/12/07 00:58:59;;;;;;;16.85;12.35;;;;;;;-144.15;0.00;65763.66;10322222;28;20552;-67
2020/12/07 01:03:56;;;;;;;21.90;12.55;;;;;;;-144.15;0.00;65763.66;10323313;28;20076;-67
2020/12/07 01:08:55;;;;;;;25.48;13.80;;;;;;;-144.15;0.00;65763.66;10322686;28;20076;-67
2020/12/07 01:13:54;;;;;;;23.83;12.13;;;;;;;-144.15;0.00;65763.66;10322941;28;20048;-67
2020/12/07 01:18:52;;;;;;;23.95;15.07;;;;;;;-144.15;0.00;65763.66;10322789;28;20083;-66
2020/12/07 01:23:50;;;;;;;25.65;13.13;;;;;;;-144.15;0.00;65763.66;10320685;28;20064;-67
2020/12/07 01:28:48;;;;;;;23.35;13.35;;;;;;;-144.15;0.00;65763.66;10320801;28;20041;-67
2020/12/07 01:33:47;;;;;;;18.45;10.65;;;;;;;-144.15;0.00;65763.66;10319785;28;20095;-67
2020/12/07 01:38:47;;;;;;;19.42;11.52;;;;;;;-144.15;0.00;65763.66;10321524;28;20068;-67
2020/12/07 01:43:46;;;;;;;19.00;9.68;;;;;;;-144.15;0.00;65763.66;10321347;28;20079;-67
2020/12/07 01:48:45;;;;;;;19.75;11.70;;;;;;;-144.15;0.00;65763.66;10319852;28;20513;-68
2020/12/07 01:53:45;;;;;;;24.52;11.20;;;;;;;-144.15;0.00;65763.66;10320018;28;20049;-67
2020/12/07 01:58:44;;;;;;;15.38;8.60;;;;;;;-144.15;0.00;65763.66;10321098;28;20107;-67
2020/12/07 02:03:42;;;;;;;16.17;9.85;;;;;;;-144.15;0.00;65763.66;10319667;28;20052;-67
2020/12/07 02:08:41;;;;;;;27.58;10.63;;;;;;;-144.15;0.00;65763.66;10320723;28;20044;-67
2020/12/07 02:13:46;;;;;;;23.88;11.63;;;;;;;-144.15;0.00;65763.66;10318953;28;20052;-67
2020/12/07 02:18:45;;;;;;;21.25;11.30;;;;;;;-144.15;0.00;65763.66;10318681;28;20087;-66
2020/12/07 02:23:45;;;;;;;20.13;9.90;;;;;;;-144.15;0.00;65763.66;10318909;28;20254;-66
2020/12/07 02:28:50;;;;;;;19.95;9.57;;;;;;;-144.15;0.00;65763.66;10318373;28;20082;-66
2020/12/07 02:33:50;;;;;;;19.70;11.50;;;;;;;-144.15;0.00;65763.66;10318334;28;20056;-68
2020/12/07 02:38:49;;;;;;;18.10;10.15;;;;;;;-144.15;0.00;65763.66;10317888;28;20456;-66
2020/12/07 02:43:48;;;;;;;18.88;10.80;;;;;;;-144.15;0.00;65763.66;10317841;28;20048;-66
2020/12/07 02:48:47;;;;;;;15.18;9.55;;;;;;;-144.15;0.00;65763.66;10317293;28;20055;-68
2020/12/07 02:53:45;;;;;;;19.05;11.77;;;;;;;-144.15;0.00;65763.66;10317892;28;20071;-67
2020/12/07 02:58:46;;;;;;;16.75;10.10;;;;;;;-144.15;0.00;65763.66;10317080;28;20096;-67
2020/12/07 03:03:45;;;;;;;19.63;11.43;;;;;;;-144.15;0.00;65763.66;10317585;28;20044;-67
2020/12/07 03:08:42;;;;;;;17.27;11.38;;;;;;;-144.15;0.00;65763.66;10316953;28;20041;-67
2020/12/07 03:13:43;;;;;;;17.15;10.95;;;;;;;-144.15;0.00;65763.66;10316807;28;20052;-67
2020/12/07 03:18:42;;;;;;;16.98;9.85;;;;;;;-144.15;0.00;65763.66;10316362;28;20045;-67
2020/12/07 03:23:43;;;;;;;15.05;11.38;;;;;;;-144.15;0.00;65763.66;10316091;28;20060;-67
2020/12/07 03:28:48;;;;;;;17.48;10.40;;;;;;;-144.15;0.00;65763.66;10316116;28;20501;-67
2020/12/07 03:33:47;;;;;;;19.13;10.90;;;;;;;-144.15;0.00;65763.66;10316090;28;20429;-68
2020/12/07 03:38:48;;;;;;;14.43;10.13;;;;;;;-144.15;0.00;65763.66;10315751;28;20056;-68
2020/12/07 03:43:46;;;;;;;13.73;10.23;;;;;;;-144.15;0.00;65763.66;10316696;28;20048;-67
2020/12/07 03:48:45;;;;;;;18.63;11.55;;;;;;;-144.15;0.00;65763.66;10315652;28;20573;-67
2020/12/07 03:53:45;;;;;;;12.63;8.95;;;;;;;-144.15;0.00;65763.66;10315407;28;20051;-67
2020/12/07 03:58:43;;;;;;;16.25;10.95;;;;;;;-144.15;0.00;65763.66;10315996;28;20084;-67
2020/12/07 04:03:49;;;;;;;14.52;9.77;;;;;;;-144.15;0.00;65763.66;10315894;28;20047;-67
2020/12/07 04:08:48;;;;;;;17.00;9.80;;;;;;;-144.15;0.00;65763.66;10315475;28;20430;-67
2020/12/07 04:13:46;;;;;;;19.40;9.90;;;;;;;-144.15;0.00;65763.66;10316166;28;20048;-67
2020/12/07 04:18:43;;;;;;;12.00;10.05;;;;;;;-144.15;0.00;65763.66;10316072;28;20076;-67
2020/12/07 04:23:41;;;;;;;17.95;11.13;;;;;;;-144.15;0.00;65763.66;10316152;28;20074;-67
2020/12/07 04:28:40;;;;;;;16.73;11.57;;;;;;;-144.15;0.00;65763.66;10316226;28;20072;-67
2020/12/07 04:33:37;;;;;;;14.93;10.85;;;;;;;-144.15;0.00;65763.66;10316661;28;20072;-66
2020/12/07 04:38:35;;;;;;;12.90;10.50;;;;;;;-144.15;0.00;65763.66;10315826;28;20458;-66
2020/12/07 04:43:34;;;;;;;18.02;13.00;;;;;;;-144.15;0.00;65763.66;10316345;28;20449;-66
2020/12/07 04:48:35;;;;;;;14.07;10.02;;;;;;;-144.15;0.00;65763.66;10316217;28;20044;-65
2020/12/07 04:53:34;;;;;;;15.00;10.30;;;;;;;-144.15;0.00;65763.66;10306673;28;20486;-66
2020/12/07 04:58:34;;;;;;;17.15;11.20;;;;;;;-144.15;0.00;65763.66;10331579;28;20076;-65
2020/12/07 05:03:33;;;;;;;13.95;9.50;;;;;;;-144.15;0.00;65763.66;10340532;28;20417;-66
2020/12/07 05:08:32;;;;;;;12.13;9.40;;;;;;;-144.15;0.00;65763.66;10343314;28;20048;-66
2020/12/07 05:13:37;;;;;;;16.75;11.07;;;;;;;-144.15;0.00;65763.66;10338068;28;20048;-65
2020/12/07 05:18:37;;;;;;;14.67;10.03;;;;;;;-144.15;0.00;65763.66;10359266;28;20808;-65
2020/12/07 05:23:36;;;;;;;14.43;10.75;;;;;;;-144.15;0.00;65763.66;10321574;28;20193;-66
2020/12/07 05:28:39;;;;;;;21.50;11.23;;;;;;;-144.15;0.00;65763.66;10320351;28;20051;-66
2020/12/07 05:33:38;;;;;;;29.52;17.90;;;;;;;-144.15;0.00;65763.66;10322310;28;20504;-66
2020/12/07 05:38:36;;;;;;;17.05;12.10;;;;;;;-144.15;0.00;65763.66;10320545;28;20502;-67
2020/12/07 05:43:33;;;;;;;16.85;12.23;;;;;;;-144.15;0.00;65763.66;10321713;28;20036;-66
2020/12/07 05:48:33;;;;;;;18.70;11.98;;;;;;;-144.15;0.00;65763.66;10324040;28;20043;-66
2020/12/07 05:53:34;;;;;;;15.75;10.93;;;;;;;-144.15;0.00;65763.66;10358872;28;20075;-67
2020/12/07 05:58:41;;;;;;;15.68;11.45;;;;;;;-144.15;0.00;65763.66;10320212;28;20095;-66
2020/12/07 06:03:42;;;;;;;23.13;12.80;;;;;;;-144.15;0.00;65763.66;10321006;28;20060;-67
2020/12/07 06:08:41;;;;;;;16.30;12.30;;;;;;;-144.15;0.00;65763.66;10320807;28;20079;-67
2020/12/07 06:13:40;;;;;;;19.02;12.00;;;;;;;-144.15;0.00;65763.66;10319656;28;20467;-67
2020/12/07 06:18:43;;;;;;;16.40;10.93;;;;;;;-144.15;0.00;65763.66;10320100;28;20068;-66
2020/12/07 06:23:42;;;;;;;20.50;13.23;;;;;;;-144.15;0.00;65763.66;10330038;28;20056;-66
2020/12/07 06:28:41;;;;;;;18.80;12.63;;;;;;;-144.15;0.00;65763.66;10318449;28;20044;-65
2020/12/07 06:33:42;;;;;;;21.88;11.40;;;;;;;-144.15;0.00;65763.66;10319906;28;20040;-67
2020/12/07 06:38:42;;;;;;;17.25;12.20;;;;;;;-144.15;0.00;65763.66;10319355;28;20540;-67
2020/12/07 06:43:40;;;;;;;29.27;15.85;;;;;;;-144.15;0.00;65763.66;10318229;28;20040;-66
2020/12/07 06:48:38;;;;;;;19.08;11.85;;;;;;;-144.15;0.00;65763.66;10322708;28;20068;-66
2020/12/07 06:53:44;;;;;;;20.63;12.80;;;;;;;-144.15;0.00;65763.66;10355841;28;20088;-66
2020/12/07 06:58:44;;;;;;;23.15;16.95;;;;;;;-144.15;0.00;65763.66;10317979;28;20080;-66
2020/12/07 07:03:51;;;;;;;19.10;13.18;;;;;;;-144.15;0.00;65763.66;10317895;28;20537;-66
2020/12/07 07:08:50;;;;;;;27.88;16.67;;;;;;;-144.15;0.00;65763.66;10317010;28;20516;-66
2020/12/07 07:13:50;;;;;;;23.15;13.63;;;;;;;-144.15;0.00;65763.66;10317032;28;20064;-66
2020/12/07 07:18:48;;;;;;;24.48;14.68;;;;;;;-144.15;0.00;65763.66;10316679;28;20075;-66
2020/12/07 07:23:46;;;;;;;23.30;13.50;;;;;;;-144.15;0.00;65763.66;10317553;28;20275;-65
2020/12/07 07:28:46;;;;;;;21.83;14.57;;;;;;;-144.15;0.00;65763.66;10316452;28;20115;-65
2020/12/07 07:33:44;;;;;;;22.90;14.32;;;;;;;-144.15;0.00;65763.66;10315621;28;20094;-66
2020/12/07 07:38:42;;;;;;;22.85;15.20;;;;;;;-144.15;0.00;65763.66;10317093;28;20075;-67
2020/12/07 07:43:40;;;;;;;27.58;14.20;;;;;;;-144.15;0.00;65763.66;10317122;28;20072;-67
2020/12/07 07:48:45;;;;;;;23.92;14.95;;;;;;;-144.15;0.00;65763.66;10320208;28;20193;-67
2020/12/07 08:15:23;;;;;;;54.70;30.58;;;;;;;-144.15;0.00;65763.66;10316937;28;20291;-68
2020/12/07 08:20:24;;;;;;;65.43;39.42;;;;;;;-144.15;0.00;65763.66;10312929;28;20080;-68
2020/12/07 08:25:40;;;;;;;31.10;18.17;;;;;;;-144.15;0.00;65763.66;10316352;28;20075;-68
2020/12/07 08:30:37;;;;;;;31.63;20.67;;;;;;;-144.15;0.00;65763.66;10315145;28;20045;-68
2020/12/07 08:35:38;;;;;;;37.38;23.13;;;;;;;-144.15;0.00;65763.66;10315265;28;20076;-67
2020/12/07 08:40:36;;;;;;;25.77;16.38;;;;;;;-144.15;0.00;65763.66;10315094;28;20079;-68
2020/12/07 08:45:34;;;;;;;28.08;14.80;;;;;;;-144.15;0.00;65763.66;10320268;28;20083;-68
2020/12/07 08:50:32;;;;;;;44.13;23.80;;;;;;;-144.15;0.00;65763.66;10342039;28;20071;-68
2020/12/07 08:55:34;;;;;;;39.22;23.85;;;;;;;-144.15;0.00;65763.66;10343378;28;20417;-67
2020/12/07 09:00:32;;;;;;;60.28;27.85;;;;;;;-144.15;0.00;65763.66;10322278;28;20088;-66
2020/12/07 09:05:30;;;;;;;44.95;24.15;;;;;;;-144.15;0.00;65763.66;10322244;28;20094;-67
2020/12/07 09:10:28;;;;;;;56.97;22.92;;;;;;;-144.15;0.00;65763.66;10322174;28;20490;-67
2020/12/07 09:15:25;;;;;;;55.50;25.65;;;;;;;-144.15;0.00;65763.66;10322356;28;20361;-67
2020/12/07 09:20:24;;;;;;;49.53;24.52;;;;;;;-144.15;0.00;65763.66;10322213;28;20087;-67
2020/12/07 09:25:22;;;;;;;49.22;28.42;;;;;;;-144.15;0.00;65763.66;10343784;28;20490;-67
2020/12/07 09:30:20;;;;;;;27.40;20.25;;;;;;;-144.15;0.00;65763.66;10321922;28;20055;-67
2020/12/07 09:35:18;;;;;;;29.85;19.52;;;;;;;-144.15;0.00;65763.66;10321216;28;20052;-67
2020/12/07 09:40:17;;;;;;;33.58;19.60;;;;;;;-144.15;0.00;65763.66;10320764;28;20080;-67
2020/12/07 09:45:14;;;;;;;66.20;38.20;;;;;;;-144.15;0.00;65763.66;10320947;28;20071;-67
2020/12/07 09:50:13;;;;;;;45.00;24.52;;;;;;;-144.15;0.00;65763.66;10337826;28;20048;-67
2020/12/07 09:55:11;;;;;;;41.60;25.75;;;;;;;-144.15;0.00;65763.66;10343111;28;20456;-67
2020/12/07 10:00:10;;;;;;;47.05;30.77;;;;;;;-144.15;0.00;65763.66;10320087;28;20080;-67
2020/12/07 10:05:07;;;;;;;41.33;26.25;;;;;;;-144.15;0.00;65763.66;10319900;28;20051;-67
2020/12/07 10:10:07;;;;;;;39.58;23.45;;;;;;;-144.15;0.00;65763.66;10320830;28;20076;-67
2020/12/07 10:15:06;;;;;;;37.85;23.05;;;;;;;-144.15;0.00;65763.66;10320520;28;20048;-67
2020/12/07 10:20:06;;;;;;;40.03;27.23;;;;;;;-144.15;0.00;65763.66;10318833;28;20417;-67
2020/12/07 10:25:04;;;;;;;29.27;19.73;;;;;;;-144.15;0.00;65763.66;10319152;28;20083;-67
2020/12/07 10:30:03;;;;;;;27.73;18.23;;;;;;;-144.15;0.00;65763.66;10319129;28;20044;-67
2020/12/07 10:35:00;;;;;;;26.15;18.83;;;;;;;-144.15;0.00;65763.66;10319600;28;20079;-67
2020/12/07 10:39:59;;;;;;;31.35;17.58;;;;;;;-144.15;0.00;65763.66;10319265;28;20076;-67
2020/12/07 10:44:57;;;;;;;20.23;13.45;;;;;;;-144.15;0.00;65763.66;10318554;28;20045;-67
2020/12/07 10:49:54;;;;;;;49.78;27.33;;;;;;;-144.15;0.00;65763.66;10331332;28;20076;-67
2020/12/07 10:54:52;;;;;;;20.08;14.25;;;;;;;-144.15;0.00;65763.66;10342114;28;20075;-67
2020/12/07 10:59:51;;;;;;;22.17;14.38;;;;;;;-144.15;0.00;65763.66;10315659;28;20092;-67
2020/12/07 11:04:49;;;;;;;19.85;14.25;;;;;;;-144.15;0.00;65763.66;10316721;28;20179;-67
2020/12/07 11:09:46;;;;;;;17.58;11.65;;;;;;;-144.15;0.00;65763.66;10317276;28;20072;-66
2020/12/07 11:14:45;;;;;;;17.15;12.23;;;;;;;-144.15;0.00;65763.66;10337679;28;20072;-64
2020/12/07 11:19:44;;;;;;;15.10;12.20;;;;;;;-144.15;0.00;65763.66;10317102;28;20064;-67
2020/12/07 11:24:41;;;;;;;26.25;18.83;;;;;;;-144.15;0.00;65763.66;10332547;28;20422;-67
2020/12/07 11:29:39;;;;;;;35.90;28.63;;;;;;;-144.15;0.00;65763.66;10316502;28;20063;-66
2020/12/07 11:34:37;;;;;;;21.08;14.02;;;;;;;-144.15;0.00;65763.66;10316354;28;20072;-66
2020/12/07 11:39:42;;;;;;;23.85;15.05;;;;;;;-144.15;0.00;65763.66;10316640;28;20075;-65
2020/12/07 11:44:40;;;;;;;;;;;;;;;-144.15;0.00;65763.66;10316453;28;20041;-66
2020/12/07 11:49:38;;;;;;;24.10;15.40;;;;;;;-144.15;0.00;65763.66;10327861;28;19931;-66
2020/12/07 11:54:36;;;;;;;36.58;22.13;;;;;;;-144.15;0.00;65763.66;10344684;28;20056;-66
2020/12/07 11:59:35;;;;;;;39.70;24.60;;;;;;;-144.15;0.00;65763.66;10316108;28;20080;-66
2020/12/07 12:04:33;;;;;;;32.67;20.40;;;;;;;-144.15;0.00;65763.66;10315514;28;20079;-66
2020/12/07 12:09:31;;;;;;;55.42;30.05;;;;;;;-144.15;0.00;65763.66;10315636;28;20446;-65
2020/12/07 12:14:33;;;;;;;38.28;25.85;;;;;;;-144.15;0.00;65763.66;10315554;28;20079;-67
2020/12/07 12:19:30;;;;;;;36.08;24.55;;;;;;;-144.15;0.00;65763.66;10314502;28;20087;-66
2020/12/07 12:24:28;;;;;;;58.70;31.92;;;;;;;-144.15;0.00;65763.66;10315067;28;20075;-66
2020/12/07 12:29:30;;;;;;;48.00;28.35;;;;;;;-144.15;0.00;65763.66;10315430;28;20040;-65
2020/12/07 12:34:29;;;;;;;41.85;24.88;;;;;;;-144.15;0.00;65763.66;10315071;28;20048;-66
2020/12/07 12:39:26;;;;;;;79.35;34.45;;;;;;;-144.15;0.00;65763.66;10315250;28;20463;-65
2020/12/07 12:44:24;;;;;;;48.97;27.02;;;;;;;-144.15;0.00;65763.66;10314919;28;20078;-65
2020/12/07 12:49:22;;;;;;;61.90;41.67;;;;;;;-144.15;0.00;65763.66;10324249;28;20036;-65
2020/12/07 12:54:21;;;;;;;45.40;25.65;;;;;;;-144.15;0.00;65763.66;10346653;28;20043;-65
2020/12/07 12:59:19;;;;;;;55.10;28.95;;;;;;;-144.15;0.00;65763.66;10325496;28;20103;-65
2020/12/07 13:04:16;;;;;;;43.22;24.65;;;;;;;-144.15;0.00;65763.66;10322423;28;20074;-66
2020/12/07 13:09:14;;;;;;;45.28;30.23;;;;;;;-144.15;0.00;65763.66;10345972;28;20072;-66
2020/12/07 13:14:12;;;;;;;30.85;20.23;;;;;;;-144.15;0.00;65763.66;10313973;28;20051;-66
2020/12/07 13:19:10;;;;;;;33.72;22.38;;;;;;;-144.15;0.00;65763.66;10314166;28;20489;-66
2020/12/07 13:24:13;;;;;;;35.05;21.05;;;;;;;-144.15;0.00;65763.66;10313886;28;20457;-66
2020/12/07 13:29:12;;;;;;;35.22;20.27;;;;;;;-144.15;0.00;65763.66;10333620;28;20506;-65
2020/12/07 13:34:10;;;;;;;38.20;21.35;;;;;;;-144.15;0.00;65763.66;10320206;28;20052;-66
2020/12/07 13:39:07;;;;;;;50.90;27.42;;;;;;;-144.15;0.00;65763.66;10320948;28;20048;-66
2020/12/07 13:44:05;;;;;;;47.03;26.92;;;;;;;-144.15;0.00;65763.66;10320558;28;20079;-66
2020/12/07 13:49:04;;;;;;;66.75;45.28;;;;;;;-144.15;0.00;65763.66;10329098;28;20063;-66
2020/12/07 13:54:03;;;;;;;47.42;35.70;;;;;;;-144.15;0.00;65763.66;10354290;28;20102;-66
2020/12/07 13:59:00;;;;;;;38.63;23.33;;;;;;;-144.15;0.00;65763.66;10320676;28;20048;-66
2020/12/07 14:04:01;;;;;;;40.70;27.08;;;;;;;-144.15;0.00;65763.66;10319623;28;20072;-66
2020/12/07 14:09:06;;;;;;;54.03;33.20;;;;;;;-144.15;0.00;65763.66;10320037;28;20489;-66
2020/12/07 14:14:04;;;;;;;50.80;33.95;;;;;;;-144.15;0.00;65763.66;10319660;28;20068;-67
2020/12/07 14:19:04;;;;;;;38.22;23.45;;;;;;;-144.15;0.00;65763.66;10319384;28;20068;-67
2020/12/07 14:24:08;;;;;;;44.63;26.65;;;;;;;-144.15;0.00;65763.66;10326948;28;20071;-67
2020/12/07 14:39:50;;;;;;;39.95;26.50;;;;;;;-144.15;0.00;65763.66;10318899;28;20055;-66
2020/12/07 14:44:50;;;;;;;68.65;43.15;;;;;;;-144.15;0.00;65763.66;10316727;28;20071;-65
2020/12/07 14:49:55;;;;;;;39.33;28.40;;;;;;;-144.15;0.00;65763.66;10327558;28;20063;-67
2020/12/07 14:55:00;;;;;;;44.25;27.98;;;;;;;-144.15;0.00;65763.66;10340320;28;20434;-66
2020/12/07 15:05:29;;;;;;;31.70;23.58;;;;;;;-144.15;0.00;65763.66;10328674;28;20452;-66
2020/12/07 15:15:43;;;;;;;33.08;23.80;;;;;;;-144.15;0.00;65763.66;10336705;28;20052;-65
2020/12/07 15:20:41;;;;;;;36.17;24.73;;;;;;;-144.15;0.00;65763.66;10317048;28;20493;-65
2020/12/07 15:25:40;;;;;;;65.93;41.53;;;;;;;-144.15;0.00;65763.66;10354737;28;20496;-65
2020/12/07 15:30:37;;;;;;;64.20;36.53;;;;;;;-144.15;0.00;65763.66;10337133;28;20044;-65
2020/12/07 15:35:35;;;;;;;49.17;34.05;;;;;;;-144.15;0.00;65763.66;10317141;28;20072;-65
2020/12/07 15:40:33;;;;;;;40.05;27.45;;;;;;;-144.15;0.00;65763.66;10316542;28;20077;-65
2020/12/07 15:45:32;;;;;;;42.17;27.38;;;;;;;-144.15;0.00;65763.66;10316323;28;20190;-65
2020/12/07 15:50:30;;;;;;;56.80;36.60;;;;;;;-144.15;0.00;65763.66;10316405;28;20063;-65
2020/12/07 15:55:27;;;;;;;54.78;34.42;;;;;;;-144.15;0.00;65763.66;10331967;28;20525;-66
2020/12/07 16:00:25;;;;;;;47.67;26.23;;;;;;;-144.15;0.00;65763.66;10338383;28;20484;-66
2020/12/07 16:05:27;;;;;;;94.07;53.75;;;;;;;-144.15;0.00;65763.66;10314320;28;20490;-66
2020/12/07 16:10:33;;;;;;;80.22;46.45;;;;;;;-144.15;0.00;65763.66;10316041;28;20083;-66
2020/12/07 16:15:30;;;;;;;;;;;;;;;-144.15;0.00;65763.66;10314385;28;20476;-65
2020/12/07 16:20:29;;;;;;;43.60;26.65;;;;;;;-144.15;0.00;65763.66;10315829;28;19963;-64
2020/12/07 16:25:26;;;;;;;40.42;26.92;;;;;;;-144.15;0.00;65763.66;10315661;28;20085;-65
2020/12/07 16:30:24;;;;;;;42.10;26.05;;;;;;;-144.15;0.00;65763.66;10315148;28;20045;-63
2020/12/07 16:35:22;;;;;;;50.38;31.92;;;;;;;-144.15;0.00;65763.66;10315601;28;20060;-64
2020/12/07 16:40:21;;;;;;;38.17;25.00;;;;;;;-144.15;0.00;65763.66;10315009;28;20469;-65
2020/12/07 16:45:19;;;;;;;49.95;31.67;;;;;;;-144.15;0.00;65763.66;10317230;28;20075;-65
2020/12/07 16:50:16;;;;;;;41.53;23.90;;;;;;;-144.15;0.00;65763.66;10322342;28;20497;-65
2020/12/07 16:55:14;;;;;;;48.95;25.50;;;;;;;-144.15;0.00;65763.66;10319136;28;20068;-65
2020/12/07 17:00:14;;;;;;;41.83;24.45;;;;;;;-144.15;0.00;65763.66;10313455;28;20486;-65
2020/12/07 17:05:12;;;;;;;36.70;20.98;;;;;;;-144.15;0.00;65763.66;10316656;28;20486;-65
2020/12/07 17:10:10;;;;;;;32.85;19.42;;;;;;;-144.15;0.00;65763.66;10323172;28;20387;-64
2020/12/07 17:15:08;;;;;;;59.70;34.40;;;;;;;-144.15;0.00;65763.66;10322877;28;20421;-65
2020/12/07 17:20:07;;;;;;;38.92;23.60;;;;;;;-144.15;0.00;65763.66;10322154;28;20056;-66
2020/12/07 17:25:04;;;;;;;36.80;22.20;;;;;;;-144.15;0.00;65763.66;10350483;28;20068;-65
2020/12/07 17:30:03;;;;;;;34.03;20.42;;;;;;;-144.15;0.00;65763.66;10363518;28;20036;-66
2020/12/07 17:35:01;;;;;;;47.38;25.95;;;;;;;-144.15;0.00;65763.66;10363343;28;20266;-66
2020/12/07 17:40:01;;;;;;;52.00;33.45;;;;;;;-144.15;0.00;65763.66;10363323;28;20281;-66
2020/12/07 17:45:00;;;;;;;53.50;34.15;;;;;;;-144.15;0.00;65763.66;10363096;28;20072;-66
2020/12/07 17:49:58;;;;;;;61.33;37.85;;;;;;;-144.15;0.00;65763.66;10362798;28;20067;-65
2020/12/07 17:54:56;;;;;;;60.78;37.53;;;;;;;-144.15;0.00;65763.66;10361987;28;20059;-65
2020/12/07 17:59:55;;;;;;;31.67;20.90;;;;;;;-144.15;0.00;65763.66;10361488;28;20551;-66
2020/12/07 18:04:53;;;;;;;30.65;21.40;;;;;;;-144.15;0.00;65763.66;10361493;28;20526;-66
2020/12/07 18:09:51;;;;;;;31.20;20.08;;;;;;;-144.15;0.00;65763.66;10361604;28;20480;-66
2020/12/07 18:14:49;;;;;;;35.17;25.02;;;;;;;-144.15;0.00;65763.66;10361283;28;20044;-65
2020/12/07 18:19:47;;;;;;;32.60;22.52;;;;;;;-144.15;0.00;65763.66;10360759;28;20063;-66
2020/12/07 18:24:45;;;;;;;22.42;14.82;;;;;;;-144.15;0.00;65763.66;10360651;28;20075;-66
2020/12/07 18:29:43;;;;;;;24.15;16.02;;;;;;;-144.15;0.00;65763.66;10359409;28;20048;-66
2020/12/07 18:34:41;;;;;;;29.95;19.27;;;;;;;-144.15;0.00;65763.66;10360280;28;20059;-68
2020/12/07 18:39:39;;;;;;;25.02;17.77;;;;;;;-144.15;0.00;65763.66;10360475;28;20048;-67
2020/12/07 18:44:37;;;;;;;20.10;13.43;;;;;;;-144.15;0.00;65763.66;10360122;28;20519;-68
2020/12/07 18:49:35;;;;;;;22.30;16.10;;;;;;;-144.15;0.00;65763.66;10344089;28;20040;-67
2020/12/07 18:54:33;;;;;;;28.00;16.73;;;;;;;-144.15;0.00;65763.66;10356875;28;20489;-66
2020/12/07 18:59:31;;;;;;;22.90;15.68;;;;;;;-144.15;0.00;65763.66;10333902;28;20075;-66
2020/12/07 19:04:29;;;;;;;22.42;13.95;;;;;;;-144.15;0.00;65763.66;10329394;28;20067;-66
2020/12/07 19:09:27;;;;;;;25.17;15.20;;;;;;;-144.15;0.00;65763.66;10339483;28;20071;-66
2020/12/07 19:14:24;;;;;;;18.90;12.35;;;;;;;-144.15;0.00;65763.66;10329211;28;20457;-66
2020/12/07 19:19:23;;;;;;;17.92;12.75;;;;;;;-144.15;0.00;65763.66;10332956;28;20068;-64
2020/12/07 19:24:23;;;;;;;18.80;12.90;;;;;;;-144.15;0.00;65763.66;10323907;28;20084;-65
2020/12/07 19:29:23;;;;;;;18.08;12.35;;;;;;;-144.15;0.00;65763.66;10331429;28;20068;-65
2020/12/07 19:34:21;;;;;;;19.15;14.10;;;;;;;-144.15;0.00;65763.66;10339205;28;20083;-66
2020/12/07 19:39:19;;;;;;;22.85;14.60;;;;;;;-144.15;0.00;65763.66;10350625;28;20492;-66
2020/12/07 19:44:17;;;;;;;26.42;16.77;;;;;;;-144.15;0.00;65763.66;10329467;28;20068;-66
2020/12/07 19:49:15;;;;;;;34.28;18.95;;;;;;;-144.15;0.00;65763.66;10327251;28;20071;-66
2020/12/07 19:54:14;;;;;;;20.73;15.20;;;;;;;-144.15;0.00;65763.66;10332963;28;20064;-64
2020/12/07 19:59:13;;;;;;;21.52;14.60;;;;;;;-144.15;0.00;65763.66;10349569;28;20079;-66
2020/12/07 20:04:11;;;;;;;19.35;13.20;;;;;;;-144.15;0.00;65763.66;10341092;28;20492;-67
2020/12/07 20:09:09;;;;;;;19.20;13.60;;;;;;;-144.15;0.00;65763.66;10315665;28;20083;-67
2020/12/07 20:14:07;;;;;;;18.52;13.45;;;;;;;-144.15;0.00;65763.66;10331347;28;20044;-67
2020/12/07 20:19:06;;;;;;;29.10;18.60;;;;;;;-144.15;0.00;65763.66;10344292;28;20064;-67
2020/12/07 20:24:03;;;;;;;67.43;38.20;;;;;;;-144.15;0.00;65763.66;10339761;28;20063;-67
2020/12/07 20:29:02;;;;;;;25.40;17.48;;;;;;;-144.15;0.00;65763.66;10330949;28;20048;-67
2020/12/07 20:34:00;;;;;;;20.05;15.45;;;;;;;-144.15;0.00;65763.66;10334657;28;20048;-67
2020/12/07 20:39:02;;;;;;;20.13;13.52;;;;;;;-144.15;0.00;65763.66;10339890;28;20509;-67
2020/12/07 20:44:00;;;;;;;17.20;12.23;;;;;;;-144.15;0.00;65763.66;10342765;28;20067;-67
2020/12/07 20:48:58;;;;;;;21.50;13.70;;;;;;;-144.15;0.00;65763.66;10338046;28;20094;-67
2020/12/07 20:53:55;;;;;;;17.27;12.43;;;;;;;-144.15;0.00;65763.66;10333133;28;20525;-67
2020/12/07 20:58:54;;;;;;;19.95;12.77;;;;;;;-144.15;0.00;65763.66;10333572;28;20127;-67
2020/12/07 21:03:52;;;;;;;17.42;13.15;;;;;;;-144.15;0.00;65763.66;10329515;28;20068;-67
2020/12/07 21:08:50;;;;;;;20.52;13.27;;;;;;;-144.15;0.00;65763.66;10353093;28;20071;-67
2020/12/07 21:13:48;;;;;;;16.13;11.63;;;;;;;-144.15;0.00;65763.66;10349183;28;20450;-67
2020/12/07 21:18:47;;;;;;;15.98;11.40;;;;;;;-144.15;0.00;65763.66;10326031;28;20055;-67
2020/12/07 21:23:44;;;;;;;14.98;11.38;;;;;;;-144.15;0.00;65763.66;10346500;28;20488;-67
2020/12/07 21:28:42;;;;;;;20.27;12.95;;;;;;;-144.15;0.00;65763.66;10347494;28;20044;-67
2020/12/07 21:33:40;;;;;;;13.90;10.38;;;;;;;-144.15;0.00;65763.66;10339266;28;20043;-67
2020/12/07 21:38:39;;;;;;;16.85;12.05;;;;;;;-144.15;0.00;65763.66;10344339;28;20064;-68
2020/12/07 21:43:36;;;;;;;20.38;13.20;;;;;;;-144.15;0.00;65763.66;10338717;28;20111;-67
2020/12/07 21:48:35;;;;;;;18.23;12.60;;;;;;;-144.15;0.00;65763.66;10343020;28;20067;-68
2020/12/07 21:53:33;;;;;;;19.63;12.82;;;;;;;-144.15;0.00;65763.66;10340456;28;20044;-67
2020/12/07 21:58:31;;;;;;;16.02;11.25;;;;;;;-144.15;0.00;65763.66;10342440;28;20334;-68
2020/12/07 22:03:30;;;;;;;16.70;11.48;;;;;;;-144.15;0.00;65763.66;10342239;28;20494;-67
2020/12/07 22:08:27;;;;;;;25.30;16.42;;;;;;;-144.15;0.00;65763.66;10339639;28;20501;-68
2020/12/07 22:13:25;;;;;;;26.83;19.23;;;;;;;-144.15;0.00;65763.66;10340693;28;20405;-68
2020/12/07 22:18:24;;;;;;;17.58;12.45;;;;;;;-144.15;0.00;65763.66;10358219;28;20068;-68
2020/12/07 22:23:21;;;;;;;24.15;15.30;;;;;;;-144.15;0.00;65763.66;10362278;28;20076;-68
2020/12/07 22:28:19;;;;;;;17.88;11.85;;;;;;;-144.15;0.00;65763.66;10362224;28;20044;-68
2020/12/07 22:33:17;;;;;;;15.68;11.15;;;;;;;-144.15;0.00;65763.66;10361872;28;20525;-68
2020/12/07 22:38:15;;;;;;;16.30;11.48;;;;;;;-144.15;0.00;65763.66;10361815;28;20074;-68
2020/12/07 22:43:13;;;;;;;14.13;10.48;;;;;;;-144.15;0.00;65763.66;10361592;28;20076;-68
2020/12/07 22:48:11;;;;;;;14.23;9.90;;;;;;;-144.15;0.00;65763.66;10361486;28;20408;-68
2020/12/07 22:53:08;;;;;;;17.70;13.02;;;;;;;-144.15;0.00;65763.66;10361060;28;20448;-68
2020/12/07 22:58:07;;;;;;;16.35;11.60;;;;;;;-144.15;0.00;65763.66;10360953;28;20048;-68
2020/12/07 23:03:05;;;;;;;16.15;12.32;;;;;;;-144.15;0.00;65763.66;10360899;28;20075;-67
2020/12/07 23:08:03;;;;;;;17.02;10.88;;;;;;;-144.15;0.00;65763.66;10360086;28;20086;-68